createdAt,value
2023-02-26T00:02:59.303Z,97624.87
2023-02-26T00:08:01.111Z,97634.33
2023-02-26T00:13:07.220Z,97644.20
2023-02-26T00:18:15.826Z,97653.29
2023-02-26T00:23:18.637Z,97662.15
2023-02-26T00:28:20.735Z,97663.12
2023-02-26T00:33:22.800Z,97670.94
2023-02-26T00:38:25.037Z,97676.70
2023-02-26T00:43:27.061Z,97683.85
2023-02-26T00:48:47.580Z,97687.61
2023-02-26T00:54:01.721Z,97686.49
2023-02-26T00:59:04.438Z,97695.04
2023-02-26T01:04:06.499Z,97694.30
2023-02-26T01:09:08.278Z,97693.75
2023-02-26T01:14:10.600Z,97694.77
2023-02-26T01:19:25.594Z,97691.48
2023-02-26T01:24:30.853Z,97694.70
2023-02-26T01:29:33.768Z,97688.39
2023-02-26T01:34:55.121Z,97696.71
2023-02-26T01:40:06.259Z,97708.77
2023-02-26T01:45:16.516Z,97708.24
2023-02-26T01:50:21.630Z,97718.83
2023-02-26T01:55:26.794Z,97728.61
2023-02-26T02:00:31.302Z,97737.06
2023-02-26T02:05:56.824Z,97742.11
2023-02-26T02:10:58.579Z,97757.45
2023-02-26T02:16:11.763Z,97762.02
2023-02-26T02:21:47.584Z,97769.20
2023-02-26T02:26:52.203Z,97776.75
2023-02-26T02:32:30.912Z,97787.34
2023-02-26T02:37:40.054Z,97795.16
2023-02-26T02:42:47.580Z,97799.18
2023-02-26T02:47:57.917Z,97795.02
2023-02-26T02:53:11.058Z,97793.74
2023-02-26T02:58:21.270Z,97803.09
2023-02-26T03:03:41.001Z,97804.61
2023-02-26T03:08:44.104Z,97804.89
2023-02-26T03:13:47.362Z,97812.63
2023-02-26T03:19:09.235Z,97820.09
2023-02-26T03:24:22.107Z,97824.87
2023-02-26T03:29:24.558Z,97836.29
2023-02-26T03:34:41.379Z,97847.90
2023-02-26T03:39:54.305Z,97868.98
2023-02-26T03:45:04.908Z,97878.20
2023-02-26T03:50:15.703Z,97882.90
2023-02-26T03:55:30.441Z,97889.14
2023-02-26T04:00:59.032Z,97896.86
2023-02-26T04:06:02.557Z,97906.10
2023-02-26T04:11:10.176Z,97906.48
2023-02-26T04:16:13.404Z,97914.85
2023-02-26T04:21:20.290Z,97922.41
2023-02-26T04:26:22.685Z,97926.15
2023-02-26T04:31:24.912Z,97933.63
2023-02-26T04:36:27.196Z,97938.13
2023-02-26T04:41:29.153Z,97945.63
2023-02-26T04:46:32.071Z,97955.73
2023-02-26T04:51:33.798Z,97956.08
2023-02-26T04:56:35.544Z,97960.07
2023-02-26T05:06:12.869Z,97973.82
2023-02-26T05:11:14.616Z,97989.45
2023-02-26T05:16:16.347Z,97990.48
2023-02-26T05:21:18.083Z,97996.55
2023-02-26T05:26:20.049Z,98012.67
2023-02-26T05:31:21.977Z,98014.41
2023-02-26T05:36:24.165Z,98022.50
2023-02-26T05:41:26.135Z,98034.25
2023-02-26T05:46:28.422Z,98050.83
2023-02-26T05:51:32.553Z,98069.30
2023-02-26T05:56:34.256Z,98077.52
2023-02-26T06:01:37.511Z,98083.33
2023-02-26T06:06:39.255Z,98094.55
2023-02-26T06:11:41.021Z,98102.09
2023-02-26T06:16:42.765Z,98117.39
2023-02-26T06:21:44.506Z,98125.52
2023-02-26T06:26:46.198Z,98129.12
2023-02-26T06:31:48.331Z,98138.00
2023-02-26T06:36:50.101Z,98145.46
2023-02-26T06:41:52.175Z,98151.44
2023-02-26T06:46:54.152Z,98161.28
2023-02-26T06:51:55.824Z,98163.46
2023-02-26T06:56:57.865Z,98166.52
2023-02-26T07:01:59.572Z,98172.55
2023-02-26T07:07:01.282Z,98183.17
2023-02-26T07:12:03.552Z,98186.77
2023-02-26T07:17:05.383Z,98189.52
2023-02-26T07:22:07.080Z,98193.69
2023-02-26T07:27:09.603Z,98201.89
2023-02-26T07:32:11.785Z,98204.34
2023-02-26T07:37:13.845Z,98212.65
2023-02-26T07:42:15.588Z,98213.98
2023-02-26T07:47:18.007Z,98220.90
2023-02-26T07:57:50.908Z,98221.55
2023-02-26T08:02:52.727Z,98233.73
2023-02-26T08:07:54.417Z,98252.83
2023-02-26T08:12:56.089Z,98260.64
2023-02-26T08:17:58.217Z,98266.06
2023-02-26T08:22:59.834Z,98265.98
2023-02-26T08:28:03.235Z,98265.74
2023-02-26T08:33:05.057Z,98270.04
2023-02-26T08:38:06.739Z,98276.52
2023-02-26T08:43:08.393Z,98276.91
2023-02-26T08:48:10.974Z,98286.56
2023-02-26T08:53:12.825Z,98293.03
2023-02-26T08:58:14.618Z,98297.77
2023-02-26T09:03:16.441Z,98294.01
2023-02-26T09:08:20.581Z,98293.34
2023-02-26T09:13:22.200Z,98298.57
2023-02-26T09:18:24.292Z,98308.91
2023-02-26T09:23:26.130Z,98313.41
2023-02-26T09:28:27.903Z,98328.46
2023-02-26T09:33:29.705Z,98329.08
2023-02-26T09:38:31.451Z,98331.55
2023-02-26T09:43:52.123Z,98339.04
2023-02-26T09:49:03.681Z,98343.27
2023-02-26T09:54:17.036Z,98360.52
2023-02-26T09:59:19.227Z,98365.23
2023-02-26T10:04:43.970Z,98372.09
2023-02-26T10:09:57.047Z,98383.62
2023-02-26T10:15:20.934Z,98393.58
2023-02-26T10:20:55.440Z,98399.55
2023-02-26T10:26:19.539Z,98421.11
2023-02-26T10:31:28.317Z,98431.46
2023-02-26T10:36:59.391Z,98430.02
2023-02-26T10:42:10.486Z,98441.83
2023-02-26T10:47:34.867Z,98455.49
2023-02-26T10:52:36.792Z,98453.84
2023-02-26T10:57:44.143Z,98473.69
2023-02-26T11:02:48.854Z,98483.36
2023-02-26T11:07:55.925Z,98484.99
2023-02-26T11:12:58.796Z,98478.27
2023-02-26T11:18:01.852Z,98478.89
2023-02-26T11:23:06.988Z,98484.66
2023-02-26T11:28:30.204Z,98485.66
2023-02-26T11:33:39.151Z,98491.27
2023-02-26T11:38:44.367Z,98494.60
2023-02-26T12:02:40.251Z,98509.05
2023-02-26T12:07:42.109Z,98517.31
2023-02-26T12:13:18.987Z,98528.03
2023-02-26T12:18:59.422Z,98533.63
2023-02-26T12:24:29.822Z,98544.71
2023-02-26T12:30:13.920Z,98555.45
2023-02-26T12:35:52.595Z,98565.74
2023-02-26T12:41:42.642Z,98575.66
2023-02-26T12:46:54.887Z,98578.65
2023-02-26T12:52:30.793Z,98592.70
2023-02-26T12:58:10.495Z,98597.56
2023-02-26T13:03:49.232Z,98600.01
2023-02-26T13:09:06.259Z,98604.73
2023-02-26T13:14:23.223Z,98609.55
2023-02-26T13:19:51.347Z,98608.34
2023-02-26T13:25:00.267Z,98609.25
2023-02-26T13:30:27.388Z,98621.43
2023-02-26T13:35:37.560Z,98638.84
2023-02-26T13:40:48.138Z,98652.14
2023-02-26T13:46:14.461Z,98655.87
2023-02-26T13:51:33.837Z,98666.55
2023-02-26T13:56:35.799Z,98665.86
2023-02-26T14:01:53.675Z,98670.96
2023-02-26T14:07:00.101Z,98676.14
2023-02-26T14:12:15.785Z,98680.16
2023-02-26T14:17:18.683Z,98686.47
2023-02-26T14:22:35.082Z,98682.62
2023-02-26T14:27:39.783Z,98685.80
2023-02-26T14:32:50.298Z,98692.65
2023-02-26T14:38:07.919Z,98696.61
2023-02-26T14:43:21.780Z,98699.60
2023-02-26T14:48:30.201Z,98705.92
2023-02-26T14:53:43.905Z,98712.42
2023-02-26T14:58:54.813Z,98723.73
2023-02-26T15:04:05.812Z,98738.98
2023-02-26T15:09:27.131Z,98741.56
2023-02-26T15:14:35.894Z,98750.38
2023-02-26T15:20:09.872Z,98758.13
2023-02-26T15:25:36.204Z,98759.47
2023-02-26T15:30:38.375Z,98770.19
2023-02-26T15:35:43.816Z,98780.02
2023-02-26T15:40:46.139Z,98785.16
2023-02-26T15:45:50.028Z,98787.09
2023-02-26T15:50:56.110Z,98790.46
2023-02-26T15:56:00.297Z,98796.77
2023-02-26T16:01:03.960Z,98802.52
2023-02-26T16:06:11.167Z,98807.90
2023-02-26T16:11:15.598Z,98808.98
2023-02-26T16:16:40.911Z,98814.27
2023-02-26T16:21:43.879Z,98824.83
2023-02-26T16:26:51.871Z,98829.70
2023-02-26T16:31:56.133Z,98842.13
2023-02-26T16:36:58.574Z,98852.45
2023-02-26T16:42:37.866Z,98855.82
2023-02-26T16:47:40.353Z,98863.87
2023-02-26T16:52:42.111Z,98869.13
2023-02-26T16:57:47.773Z,98875.99
2023-02-26T17:02:50.040Z,98883.31
2023-02-26T17:08:05.455Z,98886.38
2023-02-26T17:13:26.560Z,98884.08
2023-02-26T17:18:30.678Z,98894.36
2023-02-26T17:23:37.195Z,98905.14
2023-02-26T17:28:42.691Z,98922.25
2023-02-26T17:33:45.232Z,98925.06
2023-02-26T17:38:48.580Z,98921.56
2023-02-26T17:43:50.348Z,98929.79
2023-02-26T17:48:52.012Z,98936.05
2023-02-26T17:53:56.100Z,98941.24
2023-02-26T17:58:59.397Z,98946.92
2023-02-26T18:04:01.964Z,98948.34
2023-02-26T18:09:06.018Z,98952.40
2023-02-26T18:14:09.489Z,98954.77
2023-02-26T18:19:14.004Z,98965.73
2023-02-26T18:24:16.790Z,98969.05
2023-02-26T18:29:19.041Z,98979.89
2023-02-26T18:34:20.712Z,98989.06
2023-02-26T18:39:25.288Z,98991.14
2023-02-26T18:44:28.765Z,98995.05
2023-02-26T18:49:30.599Z,99000.63
2023-02-26T18:54:32.310Z,99002.66
2023-02-26T18:59:34.832Z,99010.30
2023-02-26T19:04:36.913Z,99011.55
2023-02-26T19:09:38.586Z,99017.42
2023-02-26T19:14:40.257Z,99023.13
2023-02-26T19:19:42.547Z,99034.33
2023-02-26T19:24:44.463Z,99030.73
2023-02-26T19:29:46.622Z,99030.13
2023-02-26T19:34:48.280Z,99033.55
2023-02-26T19:39:50.099Z,99033.20
2023-02-26T19:44:52.049Z,99040.16
2023-02-26T19:49:54.031Z,99045.83
2023-02-26T19:54:55.762Z,99052.98
2023-02-26T19:59:59.801Z,99061.73
2023-02-26T20:05:01.952Z,99069.66
2023-02-26T20:10:04.288Z,99075.70
2023-02-26T20:15:08.256Z,99075.20
2023-02-26T20:20:12.091Z,99075.31
2023-02-26T20:25:15.000Z,99083.45
2023-02-26T20:30:17.023Z,99083.66
2023-02-26T20:35:19.278Z,99091.07
2023-02-26T20:40:21.177Z,99096.89
2023-02-26T20:45:22.954Z,99100.02
2023-02-26T20:50:25.455Z,99094.61
2023-02-26T20:55:27.348Z,99101.77
2023-02-26T21:00:29.455Z,99105.26
2023-02-26T21:05:31.336Z,99102.23
2023-02-26T21:10:33.274Z,99098.91
2023-02-26T21:15:35.695Z,99114.40
2023-02-26T21:20:37.424Z,99115.92
2023-02-26T21:25:40.101Z,99119.90
2023-02-26T21:30:41.852Z,99121.98
2023-02-26T21:35:43.571Z,99127.52
2023-02-26T21:40:45.677Z,99127.55
2023-02-26T21:45:50.400Z,99134.95
2023-02-26T21:50:52.440Z,99136.88
2023-02-26T21:55:54.645Z,99141.90
2023-02-26T22:00:59.372Z,99145.40
2023-02-26T22:06:01.131Z,99149.83
2023-02-26T22:11:02.855Z,99157.00
2023-02-26T22:16:04.809Z,99165.87
2023-02-26T22:21:06.989Z,99168.52
2023-02-26T22:26:08.739Z,99173.05
2023-02-26T22:31:10.547Z,99175.25
2023-02-26T22:36:12.296Z,99178.06
2023-02-26T22:41:14.127Z,99182.48
2023-02-26T22:46:17.212Z,99183.30
2023-02-26T22:51:18.972Z,99187.92
2023-02-26T22:56:20.626Z,99194.98
2023-02-26T23:01:22.646Z,99199.73
2023-02-26T23:06:24.348Z,99200.94
2023-02-26T23:11:26.263Z,99205.54
2023-02-26T23:16:28.078Z,99209.97
2023-02-26T23:21:30.928Z,99215.33
2023-02-26T23:26:33.396Z,99215.36
2023-02-26T23:31:35.209Z,99227.14
2023-02-26T23:36:37.298Z,99230.94
2023-02-26T23:41:39.531Z,99231.98
2023-02-26T23:46:41.296Z,99238.05
2023-02-26T23:51:44.596Z,99238.27
2023-02-26T23:56:47.398Z,99240.20
